Time;durP1;ratioP1;P1;durP2;ratioP2;P2;SDS_P1;SDS_P2;PMS_P1;PMS_P2;Temp;Humidity;BMP_temperature;BMP_pressure;BME280_temperature;BME280_humidity;BME280_pressure;Samples;Min_cycle;Max_cycle;Signal;HPM_P1;HPM_P2
2024/01/23 00:00:23;;;;;;;0.95;0.68;;;10.00;99.90;;;;;;10058137;28;20120;-66
2024/01/23 00:05:14;;;;;;;2.45;0.68;;;10.00;99.90;;;;;;10079550;28;20026;-64
2024/01/23 00:10:05;;;;;;;6.82;1.33;;;10.00;99.90;;;;;;10066882;28;20084;-64
2024/01/23 00:14:58;;;;;;;1.60;0.55;;;10.00;99.90;;;;;;10058035;28;20085;-64
2024/01/23 00:19:48;;;;;;;2.08;0.68;;;10.00;99.90;;;;;;10057086;28;20692;-64
2024/01/23 00:24:39;;;;;;;2.28;0.60;;;10.00;99.90;;;;;;10057117;28;20057;-67
2024/01/23 00:29:30;;;;;;;7.72;1.35;;;10.00;99.90;;;;;;10055665;28;20041;-67
2024/01/23 00:34:20;;;;;;;4.35;1.02;;;9.90;99.90;;;;;;10053906;28;20129;-65
2024/01/23 00:39:11;;;;;;;1.75;0.70;;;9.90;99.90;;;;;;10057188;28;20457;-65
2024/01/23 00:44:02;;;;;;;1.40;0.50;;;9.90;99.90;;;;;;10056344;28;20055;-67
2024/01/23 00:48:52;;;;;;;3.33;1.15;;;9.90;99.90;;;;;;10056054;28;20148;-65
2024/01/23 00:53:43;;;;;;;4.57;0.98;;;9.80;99.90;;;;;;10057001;28;20487;-67
2024/01/23 00:58:33;;;;;;;1.92;0.75;;;9.90;99.90;;;;;;10056645;28;20434;-66
2024/01/23 01:03:24;;;;;;;1.45;0.57;;;9.90;99.90;;;;;;10057233;28;20022;-66
2024/01/23 01:08:15;;;;;;;2.58;1.90;;;9.80;99.90;;;;;;10054760;28;20554;-67
2024/01/23 01:13:05;;;;;;;2.72;1.02;;;9.80;99.90;;;;;;10056074;28;20129;-66
2024/01/23 01:17:56;;;;;;;2.65;0.77;;;9.80;99.90;;;;;;10054007;28;20125;-67
2024/01/23 01:22:46;;;;;;;3.08;1.00;;;9.80;99.90;;;;;;10056199;28;20129;-66
2024/01/23 01:27:37;;;;;;;5.55;1.40;;;9.80;99.90;;;;;;10054909;28;20034;-67
2024/01/23 01:32:28;;;;;;;3.60;1.05;;;9.80;99.90;;;;;;10056447;28;20104;-67
2024/01/23 01:37:18;;;;;;;7.43;1.10;;;9.80;99.90;;;;;;10055146;28;20045;-68
2024/01/23 01:42:09;;;;;;;2.20;0.93;;;9.80;99.90;;;;;;10055669;28;20029;-66
2024/01/23 01:47:00;;;;;;;7.07;1.75;;;9.80;99.90;;;;;;10054780;28;20037;-67
2024/01/23 01:51:50;;;;;;;4.55;1.23;;;9.80;99.90;;;;;;10054967;28;20029;-66
2024/01/23 01:56:42;;;;;;;4.40;0.90;;;9.70;99.90;;;;;;10052635;28;20116;-68
2024/01/23 02:01:33;;;;;;;3.15;1.13;;;9.80;99.90;;;;;;10061318;28;20052;-67
2024/01/23 02:06:24;;;;;;;4.05;1.10;;;9.70;99.90;;;;;;10058489;28;20536;-65
2024/01/23 02:11:15;;;;;;;5.45;1.60;;;9.70;99.90;;;;;;10062532;28;20028;-66
2024/01/23 02:16:07;;;;;;;3.20;0.88;;;9.70;99.90;;;;;;10064212;28;20116;-67
2024/01/23 02:20:58;;;;;;;4.97;1.08;;;9.70;99.90;;;;;;10062791;28;20042;-68
2024/01/23 02:25:48;;;;;;;4.13;1.50;;;9.70;99.90;;;;;;10061657;28;20041;-68
2024/01/23 02:30:39;;;;;;;3.05;1.10;;;9.60;99.90;;;;;;10062123;28;20104;-68
2024/01/23 02:35:33;;;;;;;4.22;1.30;;;9.60;99.90;;;;;;10061821;28;20018;-68
2024/01/23 02:40:25;;;;;;;2.38;0.88;;;9.60;99.90;;;;;;10062356;28;20057;-68
2024/01/23 02:45:15;;;;;;;2.70;1.15;;;9.50;99.90;;;;;;10092896;28;20025;-67
2024/01/23 02:50:07;;;;;;;3.85;1.92;;;9.50;99.90;;;;;;10062171;28;20030;-68
2024/01/23 02:54:58;;;;;;;4.22;1.98;;;9.60;99.90;;;;;;10062555;28;20445;-69
2024/01/23 02:59:49;;;;;;;2.70;1.48;;;9.60;99.90;;;;;;10061123;28;20029;-68
2024/01/23 03:04:39;;;;;;;3.15;0.90;;;9.60;99.90;;;;;;10060413;28;20653;-68
2024/01/23 03:09:30;;;;;;;6.35;1.20;;;9.60;99.90;;;;;;10059571;28;20033;-67
2024/01/23 03:14:21;;;;;;;4.18;1.35;;;9.70;99.90;;;;;;10060490;28;20033;-68
2024/01/23 03:19:11;;;;;;;2.28;0.90;;;9.70;99.90;;;;;;10060036;28;20034;-68
2024/01/23 03:24:02;;;;;;;3.25;2.47;;;9.60;99.90;;;;;;10086526;28;20221;-68
2024/01/23 03:28:54;;;;;;;3.10;1.05;;;9.70;99.90;;;;;;10057403;28;20037;-67
2024/01/23 03:33:46;;;;;;;6.15;1.88;;;9.70;99.90;;;;;;10059237;28;20032;-68
2024/01/23 03:38:37;;;;;;;3.97;1.10;;;9.70;99.90;;;;;;10059684;28;20033;-66
2024/01/23 03:43:29;;;;;;;4.07;1.55;;;9.70;99.90;;;;;;10058087;28;20063;-66
2024/01/23 03:48:19;;;;;;;6.70;1.38;;;9.70;99.90;;;;;;10049161;28;20045;-68
2024/01/23 03:53:10;;;;;;;4.43;1.30;;;9.70;99.90;;;;;;10063685;28;20029;-68
2024/01/23 03:58:01;;;;;;;3.22;1.73;;;9.70;99.90;;;;;;10059350;28;20025;-67
2024/01/23 04:02:51;;;;;;;7.57;1.50;;;9.70;99.90;;;;;;10058303;28;20418;-68
2024/01/23 04:07:42;;;;;;;3.47;1.00;;;9.60;99.90;;;;;;10057673;28;20432;-68
2024/01/23 04:12:33;;;;;;;6.32;1.35;;;9.70;99.90;;;;;;10058325;28;20407;-68
2024/01/23 04:17:24;;;;;;;3.08;0.77;;;9.60;99.90;;;;;;10058408;28;20034;-68
2024/01/23 04:22:14;;;;;;;3.30;1.05;;;9.60;99.90;;;;;;10059189;28;20129;-68
2024/01/23 04:27:05;;;;;;;4.80;1.42;;;9.50;99.90;;;;;;10058407;28;20071;-70
2024/01/23 04:31:55;;;;;;;3.72;1.10;;;9.50;99.90;;;;;;10063913;28;20029;-67
2024/01/23 04:36:46;;;;;;;2.83;1.20;;;9.50;99.90;;;;;;10057821;28;20056;-69
2024/01/23 04:41:37;;;;;;;2.95;1.02;;;9.50;99.90;;;;;;10058444;28;20387;-69
2024/01/23 04:46:27;;;;;;;7.20;0.88;;;9.50;99.90;;;;;;10057473;28;20037;-67
2024/01/23 04:51:18;;;;;;;2.00;0.95;;;9.50;99.90;;;;;;10058386;28;20430;-67
2024/01/23 04:56:09;;;;;;;3.38;0.77;;;9.50;99.90;;;;;;10056338;28;20056;-65
2024/01/23 05:01:00;;;;;;;3.05;1.38;;;9.50;99.90;;;;;;10057366;28;20041;-66
2024/01/23 05:05:51;;;;;;;4.38;0.93;;;9.50;99.90;;;;;;10058101;28;20034;-67
2024/01/23 05:10:43;;;;;;;4.55;1.13;;;9.50;99.90;;;;;;10057614;28;20029;-66
2024/01/23 05:15:34;;;;;;;2.83;0.65;;;9.50;99.90;;;;;;10071719;28;20435;-65
2024/01/23 05:20:25;;;;;;;3.03;0.85;;;9.50;99.90;;;;;;10058673;28;20041;-66
2024/01/23 05:25:16;;;;;;;2.50;1.40;;;9.50;99.90;;;;;;10056244;28;20140;-65
2024/01/23 05:30:07;;;;;;;5.55;1.15;;;9.50;99.90;;;;;;10052577;28;20068;-67
2024/01/23 05:34:59;;;;;;;3.38;0.90;;;9.50;99.90;;;;;;10053236;28;20028;-66
2024/01/23 05:39:49;;;;;;;5.97;1.00;;;9.50;99.90;;;;;;10056011;28;20025;-67
2024/01/23 05:44:40;;;;;;;4.38;1.05;;;9.50;99.90;;;;;;10056330;28;20390;-66
2024/01/23 05:49:31;;;;;;;2.50;1.02;;;9.50;99.90;;;;;;10054865;28;20044;-65
2024/01/23 05:54:22;;;;;;;1.98;0.75;;;9.50;99.90;;;;;;10055809;28;20035;-64
2024/01/23 05:59:12;;;;;;;1.45;0.63;;;9.50;99.90;;;;;;10055668;28;20507;-66
2024/01/23 06:04:03;;;;;;;4.22;1.00;;;9.50;99.90;;;;;;10055582;28;20156;-66
2024/01/23 06:08:54;;;;;;;6.60;1.20;;;9.40;99.90;;;;;;10055703;28;20622;-68
2024/01/23 06:13:45;;;;;;;3.05;0.80;;;9.50;99.90;;;;;;10050552;28;20041;-67
2024/01/23 06:18:36;;;;;;;3.40;1.65;;;9.50;99.90;;;;;;10054247;28;20748;-65
2024/01/23 06:23:27;;;;;;;3.25;1.00;;;9.50;99.90;;;;;;10053676;28;20265;-67
2024/01/23 06:28:17;;;;;;;5.70;1.58;;;9.50;99.90;;;;;;10054348;28;20128;-67
2024/01/23 06:33:08;;;;;;;4.60;1.13;;;9.40;99.90;;;;;;10054593;28;20511;-68
2024/01/23 06:37:59;;;;;;;1.80;1.67;;;9.40;99.90;;;;;;10054985;28;20053;-65
2024/01/23 06:42:49;;;;;;;4.00;1.25;;;9.30;99.90;;;;;;10055180;28;20033;-65
2024/01/23 06:47:40;;;;;;;3.55;1.20;;;9.30;99.90;;;;;;10060086;28;20038;-66
2024/01/23 06:52:30;;;;;;;3.03;1.20;;;9.30;99.90;;;;;;10061292;28;20036;-67
2024/01/23 06:57:21;;;;;;;2.92;1.00;;;9.20;99.90;;;;;;10058423;28;20056;-65
2024/01/23 07:02:12;;;;;;;5.90;1.50;;;9.30;99.90;;;;;;10061204;28;20048;-65
2024/01/23 07:07:02;;;;;;;6.70;1.60;;;9.30;99.90;;;;;;10060207;28;20044;-66
2024/01/23 07:11:54;;;;;;;4.63;1.13;;;9.30;99.90;;;;;;10064448;28;20699;-67
2024/01/23 07:16:45;;;;;;;4.90;1.58;;;9.20;99.90;;;;;;10059629;28;20033;-66
2024/01/23 07:21:36;;;;;;;4.07;1.15;;;9.20;99.90;;;;;;10060499;28;20083;-66
2024/01/23 07:26:26;;;;;;;2.45;1.00;;;9.20;99.90;;;;;;10060343;28;20045;-67
2024/01/23 07:31:17;;;;;;;2.03;0.95;;;9.10;99.90;;;;;;10060363;28;20495;-67
2024/01/23 07:36:07;;;;;;;3.83;1.38;;;9.10;99.90;;;;;;10059782;28;20029;-66
2024/01/23 07:40:58;;;;;;;2.53;1.77;;;9.00;99.90;;;;;;10058134;28;20018;-66
2024/01/23 07:45:49;;;;;;;5.32;1.00;;;9.00;99.90;;;;;;10052586;28;20029;-67
2024/01/23 07:50:39;;;;;;;5.22;1.95;;;9.10;99.90;;;;;;10057389;28;20060;-69
2024/01/23 07:55:30;;;;;;;3.72;1.60;;;9.10;99.90;;;;;;10054566;28;20034;-67
2024/01/23 08:00:21;;;;;;;4.57;1.15;;;9.20;99.90;;;;;;10055776;28;20701;-67
2024/01/23 08:05:12;;;;;;;6.90;1.50;;;9.30;99.90;;;;;;10057345;28;20030;-67
2024/01/23 08:10:04;;;;;;;4.80;1.75;;;9.20;99.90;;;;;;10057666;28;20467;-67
2024/01/23 08:14:55;;;;;;;5.55;1.63;;;9.30;99.90;;;;;;10056641;28;20026;-66
2024/01/23 08:19:45;;;;;;;3.33;1.23;;;9.20;99.90;;;;;;10057257;28;20140;-67
2024/01/23 08:24:36;;;;;;;3.28;1.80;;;9.20;99.90;;;;;;10057485;28;20226;-67
2024/01/23 08:29:27;;;;;;;2.90;1.38;;;9.20;99.90;;;;;;10056552;28;20263;-67
2024/01/23 08:34:17;;;;;;;5.10;1.50;;;9.20;99.90;;;;;;10052018;28;20033;-67
2024/01/23 08:39:08;;;;;;;2.22;1.50;;;9.30;99.90;;;;;;10055915;28;20029;-66
2024/01/23 08:43:59;;;;;;;3.22;1.77;;;9.30;99.90;;;;;;10057463;28;20053;-67
2024/01/23 08:48:49;;;;;;;5.68;1.70;;;9.30;99.90;;;;;;10057641;28;20076;-66
2024/01/23 08:53:40;;;;;;;12.32;2.83;;;9.20;99.90;;;;;;10056571;28;20087;-64
2024/01/23 08:58:31;;;;;;;11.18;3.72;;;9.20;99.90;;;;;;10055789;28;20048;-69
2024/01/23 09:03:21;;;;;;;10.43;4.47;;;9.20;99.90;;;;;;10057046;28;20037;-65
2024/01/23 09:08:12;;;;;;;9.05;2.10;;;9.30;99.90;;;;;;10056093;28;20068;-66
2024/01/23 09:13:03;;;;;;;3.63;1.95;;;9.40;99.90;;;;;;10055605;28;20040;-65
2024/01/23 09:17:54;;;;;;;7.05;1.83;;;9.40;99.90;;;;;;10056215;28;20553;-65
2024/01/23 09:22:44;;;;;;;3.70;2.58;;;9.40;99.90;;;;;;10055895;28;20104;-65
2024/01/23 09:27:35;;;;;;;5.10;1.63;;;9.50;99.90;;;;;;10055608;28;20041;-65
2024/01/23 09:32:25;;;;;;;5.00;2.17;;;9.50;99.90;;;;;;10056027;28;20059;-65
2024/01/23 09:37:16;;;;;;;5.15;2.17;;;9.60;99.90;;;;;;10055573;28;20022;-69
2024/01/23 09:42:10;;;;;;;14.20;1.85;;;9.70;99.90;;;;;;10054357;28;20025;-68
2024/01/23 09:47:02;;;;;;;4.25;2.45;;;9.70;99.90;;;;;;10055255;28;20695;-67
2024/01/23 09:51:55;;;;;;;4.25;1.70;;;9.70;99.90;;;;;;10054065;28;20441;-66
2024/01/23 09:56:46;;;;;;;3.40;1.73;;;9.70;99.90;;;;;;10051390;28;20112;-66
2024/01/23 10:01:37;;;;;;;5.60;2.15;;;9.80;99.90;;;;;;10054921;28;20123;-65
2024/01/23 10:06:27;;;;;;;2.75;1.27;;;9.80;99.90;;;;;;10052400;28;20026;-66
2024/01/23 10:11:18;;;;;;;6.35;1.48;;;9.80;99.90;;;;;;10052338;28;20099;-71
2024/01/23 10:16:10;;;;;;;5.43;1.20;;;9.90;99.90;;;;;;10055157;28;20026;-68
2024/01/23 10:21:01;;;;;;;4.65;1.30;;;9.90;99.90;;;;;;10058209;28;20092;-71
2024/01/23 10:25:54;;;;;;;5.40;1.65;;;10.00;99.90;;;;;;10062105;28;20034;-69
2024/01/23 10:30:45;;;;;;;3.00;1.27;;;10.00;99.90;;;;;;10063150;28;20376;-64
2024/01/23 10:35:36;;;;;;;1.98;1.25;;;10.10;99.90;;;;;;10054329;28;20454;-71
2024/01/23 10:40:27;;;;;;;3.97;2.05;;;10.10;99.90;;;;;;10058119;28;20029;-64
2024/01/23 10:45:18;;;;;;;7.20;1.20;;;10.20;99.90;;;;;;10061675;28;20025;-62
2024/01/23 10:50:09;;;;;;;6.32;2.15;;;10.30;99.90;;;;;;10060431;28;20718;-69
2024/01/23 10:55:05;;;;;;;3.70;1.67;;;10.30;99.90;;;;;;10060989;28;20043;-64
2024/01/23 10:59:59;;;;;;;5.32;1.23;;;10.40;99.90;;;;;;10059326;28;20033;-67
2024/01/23 11:04:51;;;;;;;2.67;0.73;;;10.50;99.90;;;;;;10055006;28;20112;-64
2024/01/23 11:10:03;;;;;;;3.35;1.48;;;10.50;99.90;;;;;;10061087;28;20049;-66
2024/01/23 11:15:06;;;;;;;2.88;1.33;;;10.50;99.90;;;;;;10061452;28;20035;-65
2024/01/23 11:20:20;;;;;;;3.88;1.20;;;10.40;99.90;;;;;;10061357;28;20510;-66
2024/01/23 11:25:17;;;;;;;3.50;1.20;;;10.50;99.90;;;;;;10056635;28;20815;-70
2024/01/23 11:30:14;;;;;;;3.85;1.17;;;10.40;99.90;;;;;;10057722;28;20072;-69
2024/01/23 11:35:11;;;;;;;2.88;1.17;;;10.40;99.90;;;;;;10060210;28;20148;-66
2024/01/23 11:40:06;;;;;;;7.20;1.92;;;10.40;99.90;;;;;;10058545;28;20135;-70
2024/01/23 11:45:27;;;;;;;4.63;1.60;;;10.40;99.90;;;;;;10060362;28;20037;-73
2024/01/23 11:50:18;;;;;;;4.07;1.23;;;10.50;99.90;;;;;;10063876;28;20064;-66
2024/01/23 11:55:09;;;;;;;2.22;1.30;;;10.50;99.90;;;;;;10064640;28;20299;-68
2024/01/23 12:00:00;;;;;;;3.20;1.30;;;10.60;99.90;;;;;;10059347;28;20033;-70
2024/01/23 12:04:51;;;;;;;6.05;1.45;;;10.50;99.90;;;;;;10060465;28;20105;-68
2024/01/23 12:09:42;;;;;;;3.35;1.00;;;10.60;99.90;;;;;;10058854;28;20131;-69
2024/01/23 12:14:33;;;;;;;4.32;1.35;;;10.60;99.90;;;;;;10057120;28;20033;-64
2024/01/23 12:19:24;;;;;;;6.57;1.77;;;10.50;99.90;;;;;;10058533;28;20463;-66
2024/01/23 12:24:15;;;;;;;2.85;1.20;;;10.60;99.90;;;;;;10058563;28;20065;-68
2024/01/23 12:29:05;;;;;;;5.03;1.48;;;10.60;99.90;;;;;;10056681;28;20061;-68
2024/01/23 12:33:58;;;;;;;9.30;1.60;;;10.60;99.90;;;;;;10053210;28;20649;-68
2024/01/23 12:38:49;;;;;;;5.80;1.27;;;10.60;99.90;;;;;;10043421;28;20132;-68
2024/01/23 12:43:40;;;;;;;4.82;1.58;;;10.60;99.90;;;;;;10077042;28;20104;-68
2024/01/23 12:48:31;;;;;;;5.97;1.63;;;10.60;99.90;;;;;;10036725;28;20065;-67
2024/01/23 12:53:24;;;;;;;3.72;1.25;;;10.60;99.90;;;;;;10044636;28;20090;-68
2024/01/23 12:58:15;;;;;;;7.70;1.90;;;10.60;99.90;;;;;;10053778;28;20469;-68
2024/01/23 13:03:08;;;;;;;4.28;2.10;;;10.70;99.90;;;;;;10054349;28;20112;-68
2024/01/23 13:07:58;;;;;;;3.70;1.50;;;10.70;99.90;;;;;;10050172;28;20052;-68
2024/01/23 13:12:51;;;;;;;3.83;1.30;;;10.60;99.90;;;;;;10042834;28;20041;-68
2024/01/23 13:17:41;;;;;;;2.50;1.23;;;10.60;99.90;;;;;;10055721;28;20033;-67
2024/01/23 13:22:32;;;;;;;4.68;1.70;;;10.60;99.90;;;;;;10049714;28;20037;-67
2024/01/23 13:27:23;;;;;;;4.63;1.10;;;10.60;99.90;;;;;;10047522;28;20041;-66
2024/01/23 13:32:13;;;;;;;6.82;1.95;;;10.60;99.90;;;;;;10049401;28;20029;-65
2024/01/23 13:37:05;;;;;;;3.22;1.13;;;10.60;99.90;;;;;;10054672;28;20113;-66
2024/01/23 13:41:56;;;;;;;5.53;1.40;;;10.60;99.90;;;;;;10052027;28;20112;-67
2024/01/23 13:46:47;;;;;;;4.93;1.20;;;10.60;99.90;;;;;;10055357;28;20613;-67
2024/01/23 13:51:40;;;;;;;1.95;1.02;;;10.70;99.90;;;;;;10056463;28;20026;-67
2024/01/23 13:56:34;;;;;;;2.97;1.60;;;10.70;99.90;;;;;;10055070;28;20025;-66
2024/01/23 14:01:25;;;;;;;2.80;0.98;;;10.60;99.90;;;;;;10055578;28;20032;-67
2024/01/23 14:06:16;;;;;;;3.72;1.50;;;10.60;99.90;;;;;;10053174;28;20046;-67
2024/01/23 14:11:07;;;;;;;4.07;1.00;;;10.70;99.90;;;;;;10055153;28;20060;-67
2024/01/23 14:15:58;;;;;;;5.72;1.10;;;10.70;99.90;;;;;;10053375;28;20030;-68
2024/01/23 14:20:49;;;;;;;5.20;1.33;;;10.60;99.90;;;;;;10054510;28;20076;-67
2024/01/23 14:25:39;;;;;;;3.85;1.00;;;10.60;99.90;;;;;;10054209;28;20095;-68
2024/01/23 14:30:30;;;;;;;1.02;0.95;;;10.70;99.90;;;;;;10064916;28;20621;-69
2024/01/23 14:35:21;;;;;;;6.13;1.17;;;10.60;99.90;;;;;;10055549;28;20029;-70
2024/01/23 14:40:12;;;;;;;3.53;1.17;;;10.60;99.90;;;;;;10053282;28;20042;-67
2024/01/23 14:45:03;;;;;;;3.70;1.50;;;10.60;99.90;;;;;;10054896;28;20057;-68
2024/01/23 14:49:53;;;;;;;2.95;0.88;;;10.60;99.90;;;;;;10042938;28;20073;-69
2024/01/23 14:54:44;;;;;;;2.45;1.20;;;10.60;99.90;;;;;;10036405;28;20033;-69
2024/01/23 14:59:35;;;;;;;6.50;1.23;;;10.60;99.90;;;;;;10039936;28;20029;-68
2024/01/23 15:04:26;;;;;;;3.78;1.55;;;10.60;99.90;;;;;;10045698;28;20072;-67
2024/01/23 15:09:17;;;;;;;4.68;1.20;;;10.60;99.90;;;;;;10048821;28;20068;-68
2024/01/23 15:14:10;;;;;;;4.20;1.20;;;10.60;99.90;;;;;;10046742;28;20028;-67
2024/01/23 15:19:01;;;;;;;4.43;1.42;;;10.60;99.90;;;;;;10048888;28;20025;-66
2024/01/23 15:23:52;;;;;;;3.17;1.13;;;10.60;99.90;;;;;;10052878;28;20104;-66
2024/01/23 15:28:42;;;;;;;4.72;1.38;;;10.60;99.90;;;;;;10043506;28;20046;-69
2024/01/23 15:33:33;;;;;;;2.50;1.40;;;10.60;99.90;;;;;;10044854;28;20026;-68
2024/01/23 15:38:24;;;;;;;3.05;1.20;;;10.70;99.90;;;;;;10038907;28;20037;-69
2024/01/23 15:43:14;;;;;;;4.95;1.40;;;10.60;99.90;;;;;;10041504;28;20029;-68
2024/01/23 15:48:05;;;;;;;2.35;1.17;;;10.60;99.90;;;;;;10060494;28;20068;-67
2024/01/23 15:52:56;;;;;;;6.03;1.50;;;10.50;99.90;;;;;;10047592;28;20612;-68
2024/01/23 15:57:47;;;;;;;4.82;1.80;;;10.60;99.90;;;;;;10047913;28;20026;-67
2024/01/23 16:02:38;;;;;;;4.22;1.63;;;10.50;99.90;;;;;;10057613;28;20037;-68
2024/01/23 16:07:28;;;;;;;3.60;1.52;;;10.50;99.90;;;;;;10056719;28;20578;-67
2024/01/23 16:12:19;;;;;;;2.35;1.98;;;10.50;99.90;;;;;;10054667;28;20474;-67
2024/01/23 16:17:10;;;;;;;4.18;1.38;;;10.50;99.90;;;;;;10050166;28;20026;-67
2024/01/23 16:22:01;;;;;;;3.88;1.20;;;10.60;99.90;;;;;;10038058;28;20049;-67
2024/01/23 16:26:52;;;;;;;4.32;1.50;;;10.50;99.90;;;;;;10044694;28;20071;-69
2024/01/23 16:31:42;;;;;;;7.40;1.80;;;10.50;99.90;;;;;;10043796;28;20109;-67
2024/01/23 16:36:33;;;;;;;3.72;1.45;;;10.40;99.90;;;;;;10051382;28;20029;-67
2024/01/23 16:41:24;;;;;;;4.05;1.95;;;10.40;99.90;;;;;;10043733;28;20076;-68
2024/01/23 16:46:15;;;;;;;3.50;1.58;;;10.40;99.90;;;;;;10041847;28;20529;-67
2024/01/23 16:51:06;;;;;;;5.53;2.38;;;10.40;99.90;;;;;;10035210;28;20072;-65
2024/01/23 16:55:57;;;;;;;5.88;1.98;;;10.40;99.90;;;;;;10030798;28;20038;-65
2024/01/23 17:00:49;;;;;;;6.43;2.05;;;10.40;99.90;;;;;;10049263;28;20033;-67
2024/01/23 17:05:39;;;;;;;6.38;1.88;;;10.40;99.90;;;;;;10050092;28;20119;-68
2024/01/23 17:10:30;;;;;;;3.30;2.22;;;10.30;99.90;;;;;;10050083;28;20620;-67
2024/01/23 17:15:21;;;;;;;3.38;1.63;;;10.30;99.90;;;;;;10055162;28;20569;-67
2024/01/23 17:20:11;;;;;;;3.00;1.55;;;10.20;99.90;;;;;;10039372;28;20041;-69
2024/01/23 17:25:02;;;;;;;5.93;1.40;;;10.20;99.90;;;;;;10056829;28;20021;-66
2024/01/23 17:29:53;;;;;;;7.65;2.05;;;10.20;99.90;;;;;;10055685;28;20041;-68
2024/01/23 17:34:43;;;;;;;6.75;2.53;;;10.20;99.90;;;;;;10058719;28;20132;-65
2024/01/23 17:39:34;;;;;;;3.58;2.38;;;10.10;99.90;;;;;;10054829;28;20029;-66
2024/01/23 17:44:26;;;;;;;5.38;1.95;;;10.20;99.90;;;;;;10052864;28;20068;-67
2024/01/23 17:49:17;;;;;;;3.22;1.80;;;10.10;99.90;;;;;;10046151;28;20045;-65
2024/01/23 17:54:08;;;;;;;7.57;2.33;;;10.10;99.90;;;;;;10054357;28;20086;-65
2024/01/23 17:58:58;;;;;;;6.88;2.38;;;10.10;99.90;;;;;;10057364;28;20029;-65
2024/01/23 18:03:51;;;;;;;8.10;3.40;;;10.00;99.90;;;;;;10055800;28;20692;-66
2024/01/23 18:08:42;;;;;;;7.53;2.10;;;10.00;99.90;;;;;;10055651;28;20058;-66
2024/01/23 18:13:33;;;;;;;5.75;1.83;;;10.10;99.90;;;;;;10055687;28;20483;-68
2024/01/23 18:18:23;;;;;;;10.18;2.15;;;10.00;99.90;;;;;;10055799;28;20041;-65
2024/01/23 18:23:14;;;;;;;4.63;2.25;;;10.10;99.90;;;;;;10055130;28;20045;-66
2024/01/23 18:28:05;;;;;;;7.97;2.38;;;10.10;99.90;;;;;;10055230;28;20045;-64
2024/01/23 18:32:55;;;;;;;4.95;1.67;;;10.10;99.90;;;;;;10055467;28;20029;-66
2024/01/23 18:37:47;;;;;;;4.32;2.08;;;10.10;99.90;;;;;;10055586;28;20025;-65
2024/01/23 18:42:38;;;;;;;3.25;2.03;;;10.10;99.90;;;;;;10051586;28;20032;-66
2024/01/23 18:47:28;;;;;;;5.50;1.70;;;10.10;99.90;;;;;;10062763;28;20041;-65
2024/01/23 18:52:19;;;;;;;5.35;1.63;;;10.20;99.90;;;;;;10062766;28;20558;-66
2024/01/23 18:57:10;;;;;;;3.20;1.50;;;10.20;99.90;;;;;;10067078;28;20364;-67
2024/01/23 19:02:00;;;;;;;5.60;3.05;;;10.20;99.90;;;;;;10062197;28;20030;-66
2024/01/23 19:06:51;;;;;;;8.60;2.53;;;10.20;99.90;;;;;;10059828;28;20080;-66
2024/01/23 19:11:45;;;;;;;7.32;2.22;;;10.10;99.90;;;;;;10074796;28;20033;-70
2024/01/23 19:16:37;;;;;;;5.00;2.95;;;10.10;99.90;;;;;;10058758;28;20040;-65
2024/01/23 19:21:27;;;;;;;8.27;2.08;;;10.20;99.90;;;;;;10057101;28;20140;-66
2024/01/23 19:26:18;;;;;;;8.50;3.25;;;10.20;99.90;;;;;;10060449;28;20506;-66
2024/01/23 19:31:09;;;;;;;6.45;1.98;;;10.20;99.90;;;;;;10058691;28;20021;-66
2024/01/23 19:35:59;;;;;;;9.10;2.30;;;10.20;99.90;;;;;;10059649;28;20017;-66
2024/01/23 19:40:51;;;;;;;4.25;2.63;;;10.20;99.90;;;;;;10060156;28;20041;-67
2024/01/23 19:45:41;;;;;;;8.25;2.45;;;10.30;99.90;;;;;;10060476;28;20025;-67
2024/01/23 19:50:32;;;;;;;4.25;1.45;;;10.30;99.90;;;;;;10059743;28;20033;-66
2024/01/23 19:55:23;;;;;;;4.53;1.50;;;10.30;99.90;;;;;;10061681;28;20038;-67
2024/01/23 20:00:16;;;;;;;6.35;2.15;;;10.30;99.90;;;;;;10060148;28;20033;-68
2024/01/23 20:05:08;;;;;;;3.17;1.63;;;10.30;99.90;;;;;;10056437;28;20038;-66
2024/01/23 20:09:59;;;;;;;3.42;1.45;;;10.30;99.90;;;;;;10058808;28;20219;-66
2024/01/23 20:14:49;;;;;;;4.47;1.45;;;10.30;99.90;;;;;;10057465;28;20033;-68
2024/01/23 20:19:40;;;;;;;5.60;1.45;;;10.30;99.90;;;;;;10059592;28;20091;-69
2024/01/23 20:24:31;;;;;;;4.22;1.88;;;10.30;99.90;;;;;;10058262;28;20045;-65
2024/01/23 20:29:21;;;;;;;3.38;1.30;;;10.30;99.90;;;;;;10058422;28;20045;-69
2024/01/23 20:34:12;;;;;;;4.20;1.58;;;10.30;99.90;;;;;;10061017;28;20026;-66
2024/01/23 20:39:04;;;;;;;4.80;1.85;;;10.40;99.90;;;;;;10057126;28;20045;-68
2024/01/23 20:43:54;;;;;;;5.28;1.30;;;10.30;99.90;;;;;;10057899;28;20087;-67
2024/01/23 20:48:45;;;;;;;4.25;1.55;;;10.40;99.90;;;;;;10060310;28;20565;-66
2024/01/23 20:53:36;;;;;;;2.00;1.40;;;10.40;99.90;;;;;;10057506;28;20042;-65
2024/01/23 20:58:26;;;;;;;3.30;1.77;;;10.40;99.90;;;;;;10056335;28;20035;-66
2024/01/23 21:03:17;;;;;;;3.92;1.58;;;10.40;99.90;;;;;;10057084;28;20029;-69
2024/01/23 21:08:08;;;;;;;6.07;1.92;;;10.40;99.90;;;;;;10057107;28;20617;-68
2024/01/23 21:12:59;;;;;;;3.00;1.17;;;10.40;99.90;;;;;;10056782;28;20463;-68
2024/01/23 21:17:49;;;;;;;5.55;2.15;;;10.40;99.90;;;;;;10056656;28;20037;-67
2024/01/23 21:22:40;;;;;;;7.50;2.50;;;10.40;99.90;;;;;;10052320;28;20523;-66
2024/01/23 21:27:31;;;;;;;2.55;1.38;;;10.50;99.90;;;;;;10063916;28;20036;-67
2024/01/23 21:32:22;;;;;;;5.80;1.67;;;10.50;99.90;;;;;;10070917;28;20103;-66
2024/01/23 21:37:13;;;;;;;4.03;1.30;;;10.50;99.90;;;;;;10073310;28;20437;-66
2024/01/23 21:42:03;;;;;;;4.13;1.42;;;10.50;99.90;;;;;;10077118;28;20017;-67
2024/01/23 21:46:54;;;;;;;3.03;1.38;;;10.50;99.90;;;;;;10067017;28;20443;-65
2024/01/23 21:51:44;;;;;;;6.28;1.65;;;10.50;99.90;;;;;;10073549;28;20087;-67
2024/01/23 21:56:35;;;;;;;5.57;1.60;;;10.60;99.90;;;;;;10070829;28;20112;-65
2024/01/23 22:01:26;;;;;;;3.05;1.08;;;10.60;99.90;;;;;;10065654;28;20025;-65
2024/01/23 22:06:16;;;;;;;2.13;1.65;;;10.60;99.90;;;;;;10048249;28;20030;-66
2024/01/23 22:11:07;;;;;;;6.82;1.27;;;10.60;99.90;;;;;;10069342;28;20067;-67
2024/01/23 22:15:58;;;;;;;1.60;1.00;;;10.60;99.90;;;;;;10069182;28;20111;-66
2024/01/23 22:20:48;;;;;;;5.03;1.30;;;10.60;99.90;;;;;;10063761;28;20054;-66
2024/01/23 22:25:39;;;;;;;5.00;1.05;;;10.60;99.90;;;;;;10065356;28;20048;-67
2024/01/23 22:30:30;;;;;;;4.22;1.17;;;10.60;99.90;;;;;;10063102;28;20541;-67
2024/01/23 22:35:21;;;;;;;4.28;1.40;;;10.60;99.90;;;;;;10063417;28;20021;-66
2024/01/23 22:40:12;;;;;;;4.35;1.52;;;10.70;99.90;;;;;;10056965;28;20451;-67
2024/01/23 22:45:03;;;;;;;2.70;1.08;;;10.70;99.90;;;;;;10058239;28;20617;-66
2024/01/23 22:49:53;;;;;;;1.67;1.10;;;10.70;99.90;;;;;;10060308;28;20483;-67
2024/01/23 22:54:44;;;;;;;2.40;1.17;;;10.70;99.90;;;;;;10070851;28;20029;-65
2024/01/23 22:59:37;;;;;;;5.03;1.17;;;10.80;99.90;;;;;;10081739;28;20116;-66
2024/01/23 23:04:28;;;;;;;3.05;0.82;;;10.80;99.90;;;;;;10064364;28;20001;-65
2024/01/23 23:09:18;;;;;;;1.90;0.75;;;10.80;99.90;;;;;;10052171;28;20116;-66
2024/01/23 23:14:09;;;;;;;2.30;1.05;;;10.80;99.90;;;;;;10049241;28;20057;-67
2024/01/23 23:18:59;;;;;;;4.35;1.05;;;10.80;99.90;;;;;;10062097;28;20031;-66
2024/01/23 23:23:50;;;;;;;3.63;1.02;;;10.90;99.90;;;;;;10060003;28;20092;-65
2024/01/23 23:28:41;;;;;;;3.30;0.90;;;10.90;99.90;;;;;;10060512;28;20036;-65
2024/01/23 23:33:32;;;;;;;6.10;1.08;;;10.90;99.90;;;;;;10057437;28;20116;-65
2024/01/23 23:38:23;;;;;;;4.07;1.52;;;10.90;99.90;;;;;;10092513;28;20087;-67
2024/01/23 23:43:13;;;;;;;2.30;1.25;;;10.90;99.90;;;;;;10059956;28;20437;-66
2024/01/23 23:48:05;;;;;;;3.80;1.20;;;10.90;99.90;;;;;;10060653;28;20029;-66
2024/01/23 23:52:55;;;;;;;1.38;0.88;;;11.00;99.90;;;;;;10059841;28;20422;-67
2024/01/23 23:57:46;;;;;;;3.25;1.00;;;11.00;99.90;;;;;;10058216;28;20044;-66
